< < Back
Terminal Aerodrome Forecast


Current Version              Previous Versions:   1  2  3  4  5  6  7  8  9  

Terminal Aerodrome Forecast

981
FTUS42 KGSP 161700
TAFAVL
TAF
KAVL 161737Z 1618/1718 15007KT P6SM SKC
     FM171300 15009KT P6SM SCT250=



Latest METAR

720
SAUS70 KWBC 171500 RRE
MTRAVL
METAR KAVL 171454Z 18008KT 10SM CLR 08/M02 A3048 RMK AO2 SLP325
T00781022 51006


USA.gov is the U.S. government's official web portal to all federal, state and local government web resources and services.